Wednesday, July 30, 2014
13:15 UTC
  |  Log In   |  Register Free
Airport Search:

Enterprise Municipal Airport
(KEDN)

Enterprise Municipal Airport Diagram
No Airport Diagram Available

FAA data valid effective July 24, 2014 until September 18, 2014 (unless otherwise noted).

 
 
 
 
 
 
 
 
 
 
 
 
 
 

Current Aviation Weather for Enterprise Municipal Airport (KEDN)

The most recent METAR observation for KLOR was updated at: 1853 UTC
METAR Summary (Translated METAR)
KLOR
281853Z AUTO 27010KT 10SM SCT044 BKN055 BKN070 35/22 A2994 RMK AO2 SLP132 T03500222 TSNO $
KOZR
(5.2 nm SE from KLOR)
281758Z AUTO 26009KT 210V280 10SM FEW042 SCT160 SCT210 34/24 A2998 RMK AO2 SLP151 T03370238 10337 20251 58010
TAF Summary (Translated TAF)
KOZR
(5.2 nm SE from KLOR)
3008/3114 36006KT 9999 SKC QNH3000INS TX32/3020Z TN18/3011Z
KDHN
(15.6 nm SE from KLOR)
301226Z 3012/3112 33006KT P6SM FEW060 SCT250
  Airport Weather Conditions for KEDN

Current weather conditions are
not available for EDN


The nearest NOAA weather station
is at LOR, (8.3 nm NE from EDN)
  
 Current Weather at LOR
69° F
Fair
North winds at 6.9 mph
LOR NOAA Radar

Pressure: 30.04 in
Humidity: 68%
Wind: North at 6.9 MPH (6 KT)
Dew Point: 57.9°F
Visibility: 10.00 mi


Airport Weather Forecast for KEDN

Translated METAR and TAF for KLOR
Translated METAR for KLOR (1309 UTC 30 July 2014)
found at http://aviationweather.gov/adds/metars/
 
METAR text: KLOR 301253Z AUTO 01006KT 10SM CLR 21/14 A3004 RMK AO2 SLP168 T02060144 $
Conditions at: KLOR (LOWE AHP/FT. RUC, AL, US) observed 1253 UTC 30 July 2014
Temperature: 20.6°C (69°F)
Dewpoint: 14.4°C (58°F) [RH = 68%]
Pressure (altimeter): 30.04 inches Hg (1017.4 mb)
[Sea-level pressure: 1016.8 mb]
Winds: from the N (10 degrees) at 7 MPH (6 knots; 3.1 m/s)
Visibility: 10 or more miles (16+ km)
Ceiling: at least 12,000 feet AGL
Clouds: sky clear below 12,000 feet AGL
Weather:
SOME DATA ABOVE MAY BE INACCURATE!!!
"$" is an indication the sensor requires maintenance
Translated TAF for KLOR

There is no translated TAF available for this airport

Find All Airport Services Find A Hotel Find A Rental Car Find A Golf Course Find A Restaurant $100 Hamburger



FBO's on the Field
FBO Company Facility Photos Services Transportation Aviation Fuel Prices: Prices include tax
Catering Weather Repair Courtesy Rental Type 100LL JetA JetA+ MOGAS 8087
 
Enterprise Municipal Airport

This FBO has not yet been rated
FS:Epic
Last Updated: Jul-16
Login to update fuel prices
SS:
Contact Enterprise Municipal AirportMore FBO Information
 
Add another FBO Facility Photos Catering Weather Repair Courtesy Rental Type 100LL JetA JetA+ MOGAS 8087
Services Transportation Aviation Fuel Prices: Prices include tax


GlobalAir.com Airport Resource Center model-print
model-print
model-print
model-print